createdAt,value
2023-05-22T00:03:44.723Z,27.7
2023-05-22T00:07:48.347Z,23.1
2023-05-22T00:14:59.562Z,26.5
2023-05-22T00:17:01.395Z,33.7
2023-05-22T00:21:06.493Z,29.7
2023-05-22T00:23:13.919Z,30
2023-05-22T00:27:15.159Z,28.2
2023-05-22T00:33:20.577Z,27.6
2023-05-22T00:35:22.413Z,27.1
2023-05-22T00:37:27.391Z,26.4
2023-05-22T00:39:29.145Z,30.9
2023-05-22T00:53:45.065Z,29.8
2023-05-22T00:55:46.857Z,24.8
2023-05-22T00:57:48.658Z,25.1
2023-05-22T00:59:50.462Z,22.7
2023-05-22T01:01:52.320Z,30.2
2023-05-22T01:03:54.235Z,28.4
2023-05-22T01:12:31.311Z,23.6
2023-05-22T01:14:33.085Z,26.1
2023-05-22T01:16:34.916Z,22.7
2023-05-22T01:18:39.944Z,30.7
2023-05-22T01:20:41.861Z,29.1
2023-05-22T01:22:43.570Z,24.6
2023-05-22T01:24:45.380Z,22.3
2023-05-22T01:26:47.197Z,22.9
2023-05-22T01:30:50.802Z,25.2
2023-05-22T01:32:55.952Z,20.8
2023-05-22T01:34:57.675Z,29.2
2023-05-22T01:36:59.483Z,26.5
2023-05-22T01:41:03.088Z,29.6
2023-05-22T01:43:04.898Z,29.5
2023-05-22T01:45:06.725Z,28.5
2023-05-22T01:47:11.751Z,21.3
2023-05-22T01:49:13.579Z,27.3
2023-05-22T01:51:15.379Z,28.8
2023-05-22T01:53:17.191Z,26.5
2023-05-22T01:55:18.985Z,26.5
2023-05-22T01:57:20.808Z,25.5
2023-05-22T01:59:22.608Z,21
2023-05-22T02:03:29.668Z,32.8
2023-05-22T02:05:31.305Z,24.3
2023-05-22T02:06:33.816Z,32.3
2023-05-22T02:08:35.617Z,23.6
2023-05-22T02:12:39.232Z,24.3
2023-05-22T02:16:46.096Z,24.6
2023-05-22T02:18:47.932Z,24.9
2023-05-22T02:20:49.709Z,20.6
2023-05-22T02:22:51.530Z,21.2
2023-05-22T02:29:00.213Z,24.3
2023-05-22T02:31:02.054Z,21.7
2023-05-22T02:33:03.945Z,20.1
2023-05-22T02:37:07.448Z,20.7
2023-05-22T02:39:09.232Z,20.3
2023-05-22T02:41:11.056Z,20.4
2023-05-22T02:47:19.686Z,21.2
2023-05-22T02:51:23.317Z,21.7
2023-05-22T02:53:25.137Z,23.5
2023-05-22T02:55:26.914Z,22.1
2023-05-22T02:57:31.989Z,20.4
2023-05-22T02:59:33.786Z,18.4
2023-05-22T03:01:35.619Z,17.2
2023-05-22T03:02:38.160Z,25.1
2023-05-22T03:08:43.521Z,19.4
2023-05-22T03:10:48.622Z,28.9
2023-05-22T03:12:50.404Z,26.1
2023-05-22T03:14:52.214Z,20.4
2023-05-22T03:18:55.827Z,17.9
2023-05-22T03:20:57.662Z,22.6
2023-05-22T03:22:59.450Z,26.6
2023-05-22T03:25:04.513Z,24.8
2023-05-22T03:27:06.314Z,21.8
2023-05-22T03:29:08.131Z,17.5
2023-05-22T03:51:31.154Z,24.9
2023-05-22T03:55:38.044Z,24.6
2023-05-22T03:58:42.333Z,25.2
2023-05-22T04:00:44.145Z,24.1
2023-05-22T04:02:45.999Z,25.2
2023-05-22T04:04:47.776Z,23.5
2023-05-22T04:06:52.802Z,27.4
2023-05-22T04:08:54.613Z,19.9
2023-05-22T04:10:56.401Z,27.2
2023-05-22T04:12:58.190Z,30.9
2023-05-22T04:15:00.005Z,24.5
2023-05-22T04:19:03.712Z,26.7
2023-05-22T04:21:08.714Z,30.4
2023-05-22T04:35:24.548Z,25.9
2023-05-22T04:37:26.321Z,28.1
2023-05-22T04:39:28.156Z,21.7
2023-05-22T04:41:29.926Z,26.3
2023-05-22T04:43:31.716Z,24.5
2023-05-22T04:45:33.534Z,26.4
2023-05-22T04:49:40.388Z,22.8
2023-05-22T04:51:42.224Z,25.8
2023-05-22T04:56:14.702Z,23.1
2023-05-22T05:02:21.344Z,27.9
2023-05-22T05:08:26.703Z,18.9
2023-05-22T05:10:28.517Z,22
2023-05-22T05:12:30.291Z,21.9
2023-05-22T05:14:32.091Z,24.6
2023-05-22T05:16:37.214Z,23.3
2023-05-22T05:22:42.541Z,23.4
2023-05-22T05:24:44.352Z,25.6
2023-05-22T05:26:46.165Z,23.5
2023-05-22T05:32:54.836Z,24.3
2023-05-22T05:34:56.607Z,19.2
2023-05-22T05:41:02.007Z,18.6
2023-05-22T05:43:03.818Z,24.1
2023-05-22T05:45:08.880Z,22.6
2023-05-22T05:47:10.657Z,19.5
2023-05-22T05:49:12.478Z,20.5
2023-05-22T05:50:14.980Z,23.4
2023-05-22T05:52:16.772Z,20.3
2023-05-22T05:54:18.597Z,19.4
2023-05-22T05:58:25.446Z,20.2
2023-05-22T06:00:27.248Z,16
2023-05-22T06:02:29.095Z,14.1
2023-05-22T06:04:30.725Z,14
2023-05-22T06:08:34.195Z,24.1
2023-05-22T06:10:37.751Z,15
2023-05-22T06:22:50.510Z,10.4
2023-05-22T06:24:52.161Z,10.8
2023-05-22T06:33:01.922Z,12.8
2023-05-22T06:35:03.505Z,14.8
2023-05-22T06:37:05.152Z,21.1
2023-05-22T06:39:06.787Z,13.5
2023-05-22T06:41:11.589Z,11.3
2023-05-22T06:43:13.216Z,11.4
2023-05-22T06:45:14.849Z,41.2
2023-05-22T07:16:47.857Z,9.3
2023-05-22T07:18:49.428Z,12.7
2023-05-22T07:42:16.130Z,13
2023-05-22T07:44:17.743Z,13.7
2023-05-22T07:46:19.460Z,13
2023-05-22T07:48:21.050Z,12.9
2023-05-22T07:52:27.513Z,16
2023-05-22T07:54:29.166Z,14.4
2023-05-22T07:56:30.790Z,10.5
2023-05-22T08:02:35.821Z,10.5
2023-05-22T08:04:40.711Z,12.6
2023-05-22T08:06:42.238Z,12.2
2023-05-22T08:08:43.788Z,12.6
2023-05-22T08:11:02.576Z,12
2023-05-22T08:12:47.062Z,16.9
2023-05-22T08:16:50.314Z,17.4
2023-05-22T08:29:03.140Z,13.2
2023-05-22T08:33:09.564Z,28.5
2023-05-22T08:35:11.139Z,18.7
2023-05-22T08:37:12.760Z,11.3
2023-05-22T08:39:41.040Z,14.2
2023-05-22T08:41:42.655Z,15.5
2023-05-22T08:43:44.308Z,11.6
2023-05-22T08:45:49.108Z,15
2023-05-22T08:49:52.343Z,12.6
2023-05-22T08:51:53.954Z,12.4
2023-05-22T08:53:55.570Z,12.9
2023-05-22T08:55:57.182Z,14.6
2023-05-22T08:57:58.763Z,18.8
2023-05-22T09:00:03.576Z,14.9
2023-05-22T09:06:08.365Z,14.8
2023-05-22T09:08:19.657Z,13.7
2023-05-22T09:10:11.630Z,12.2
2023-05-22T09:12:13.176Z,11.1
2023-05-22T09:16:19.593Z,13
2023-05-22T09:18:21.138Z,13.3
2023-05-22T09:20:22.795Z,13.6
2023-05-22T09:22:24.534Z,12.1
2023-05-22T09:32:35.360Z,10.6
2023-05-22T09:33:37.721Z,15.4
2023-05-22T09:35:39.300Z,16.6
2023-05-22T09:37:40.804Z,16.4
2023-05-22T09:39:42.378Z,14.9
2023-05-22T09:41:47.173Z,11.4
2023-05-22T09:43:48.663Z,14
2023-05-22T09:45:50.285Z,12
2023-05-22T09:47:51.954Z,14.7
2023-05-22T09:49:53.459Z,11.3
2023-05-22T09:51:54.864Z,10
2023-05-22T09:53:56.427Z,9.6
2023-05-22T09:56:01.179Z,14.9
2023-05-22T09:58:02.731Z,10.8
2023-05-22T10:06:08.887Z,56.1
2023-05-22T10:08:10.435Z,17.1
2023-05-22T10:10:15.197Z,22.9
2023-05-22T10:12:16.731Z,11.8
2023-05-22T10:14:18.277Z,10.8
2023-05-22T10:16:19.924Z,11.1
2023-05-22T10:18:21.371Z,15.1
2023-05-22T10:20:22.904Z,12
2023-05-22T10:22:24.424Z,11.6
2023-05-22T10:24:29.158Z,21.9
2023-05-22T10:26:30.711Z,23
2023-05-22T10:29:34.579Z,11.2
2023-05-22T10:31:36.132Z,9.6
2023-05-22T10:33:37.714Z,9.2
2023-05-22T10:35:39.150Z,11.1
2023-05-22T10:37:43.899Z,13.5
2023-05-22T10:43:48.503Z,20.8
2023-05-22T10:45:50.070Z,11.5
2023-05-22T10:47:51.559Z,8.9
2023-05-22T10:49:53.085Z,9.5
2023-05-22T10:51:57.795Z,18.5
2023-05-22T10:53:59.313Z,11.6
2023-05-22T10:56:00.883Z,12.1
2023-05-22T10:58:04.965Z,11.6
2023-05-22T11:08:13.213Z,8.3
2023-05-22T11:10:14.717Z,8.8
2023-05-22T11:12:16.251Z,8.7
2023-05-22T11:18:20.838Z,8.1
2023-05-22T11:20:25.577Z,6
2023-05-22T11:22:27.050Z,8.6
2023-05-22T11:24:28.602Z,9
2023-05-22T11:25:30.928Z,9.1
2023-05-22T11:27:32.410Z,10.1
2023-05-22T11:29:33.948Z,12.8
2023-05-22T11:31:35.497Z,10.8
2023-05-22T11:33:40.164Z,10.8
2023-05-22T11:35:41.699Z,13.7
2023-05-22T11:37:43.213Z,15.6
2023-05-22T11:39:44.752Z,10.5
2023-05-22T11:41:46.259Z,11.7
2023-05-22T11:43:47.804Z,7.3
2023-05-22T11:45:49.315Z,9.4
2023-05-22T11:47:54.101Z,10.4
2023-05-22T11:49:55.575Z,9.5
2023-05-22T11:51:57.103Z,9.6
2023-05-22T11:53:58.657Z,9.5
2023-05-22T11:56:00.156Z,11.4
2023-05-22T11:58:01.676Z,13
2023-05-22T12:02:09.467Z,10.6
2023-05-22T12:10:15.705Z,10.3
2023-05-22T12:22:54.834Z,10.8
2023-05-22T12:24:56.411Z,8.2
2023-05-22T12:26:57.952Z,7.5
2023-05-22T12:29:02.718Z,13.1
2023-05-22T12:31:04.307Z,9.2
2023-05-22T12:35:07.383Z,7.6
2023-05-22T12:37:08.982Z,10.4
2023-05-22T12:39:10.512Z,9.5
2023-05-22T12:41:12.071Z,6.8
2023-05-22T12:43:16.861Z,12.7
2023-05-22T12:45:18.467Z,7.5
2023-05-22T12:47:20.006Z,5.9
2023-05-22T12:49:21.573Z,16
2023-05-22T12:51:23.163Z,10.7
2023-05-22T12:53:24.740Z,12.9
2023-05-22T12:55:26.287Z,7.1
2023-05-22T12:57:31.091Z,6.5
2023-05-22T13:03:35.867Z,8.8
2023-05-22T13:05:37.532Z,11.8
2023-05-22T13:07:38.989Z,10
2023-05-22T13:09:40.588Z,6.8
2023-05-22T13:11:45.404Z,16.5
2023-05-22T13:13:46.964Z,8.2
2023-05-22T13:15:48.615Z,7.7
2023-05-22T13:16:50.971Z,7.6
2023-05-22T13:18:52.590Z,6.8
2023-05-22T13:20:54.168Z,22.1
2023-05-22T13:25:00.585Z,7.3
2023-05-22T13:31:05.409Z,8.7
2023-05-22T13:35:08.616Z,7.2
2023-05-22T13:49:23.122Z,11.3
2023-05-22T13:53:29.592Z,12.1
2023-05-22T13:55:31.179Z,12.2
2023-05-22T13:57:32.806Z,12.7
2023-05-22T14:01:36.146Z,8.4
2023-05-22T14:03:37.829Z,24
2023-05-22T14:05:39.433Z,12.2
2023-05-22T14:07:44.132Z,11.7
2023-05-22T14:09:45.762Z,9.9
2023-05-22T14:11:47.417Z,10
2023-05-22T14:12:49.773Z,12.2
2023-05-22T14:25:02.765Z,6.4
2023-05-22T14:27:04.393Z,6.2
2023-05-22T14:41:19.112Z,7.5
2023-05-22T14:43:20.816Z,7.5
2023-05-22T14:45:22.418Z,8.9
2023-05-22T14:47:24.091Z,5
2023-05-22T14:49:28.922Z,9
2023-05-22T14:51:30.635Z,23.1
2023-05-22T14:55:33.880Z,6.5
2023-05-22T14:57:35.530Z,5.4
2023-05-22T14:59:37.177Z,21.5
2023-05-22T15:03:43.714Z,9
2023-05-22T15:07:49.032Z,9.7
2023-05-22T15:08:49.449Z,7.7
2023-05-22T15:10:51.054Z,8.2
2023-05-22T15:14:54.365Z,18.5
2023-05-22T15:16:59.195Z,10.7
2023-05-22T15:19:00.865Z,4.8
2023-05-22T15:21:02.502Z,3
2023-05-22T15:25:05.853Z,6.5
2023-05-22T15:31:13.885Z,7.8
2023-05-22T15:33:15.534Z,4.7
2023-05-22T15:35:17.117Z,9.1
2023-05-22T15:39:20.419Z,13.1
2023-05-22T15:43:24.945Z,5.4
2023-05-22T15:47:30.242Z,5.7
2023-05-22T15:55:36.801Z,6.2
2023-05-22T15:57:38.449Z,3.4
2023-05-22T15:59:43.281Z,15.8
2023-05-22T16:01:45.119Z,7.2
2023-05-22T16:03:46.641Z,3.9
2023-05-22T16:06:14.937Z,6.2
2023-05-22T16:08:16.602Z,3.9
2023-05-22T16:10:18.213Z,6.8
2023-05-22T16:12:23.050Z,4.7
2023-05-22T16:14:24.705Z,3.1
2023-05-22T16:16:26.404Z,4.6
2023-05-22T16:18:28.007Z,8.1
2023-05-22T16:20:29.648Z,4.5
2023-05-22T16:22:44.216Z,4.6
2023-05-22T16:28:39.424Z,5
2023-05-22T16:30:41.078Z,5.6
2023-05-22T16:32:42.777Z,8.7
2023-05-22T16:34:44.402Z,8.8
2023-05-22T16:38:47.714Z,6.1
2023-05-22T16:40:52.524Z,7.2
2023-05-22T16:42:54.230Z,7.1
2023-05-22T16:44:55.883Z,5.1
2023-05-22T16:46:57.553Z,4.5
2023-05-22T16:55:07.372Z,7.1
2023-05-22T17:00:13.111Z,4.6
2023-05-22T17:02:14.801Z,6.8
2023-05-22T17:04:16.429Z,19.5
2023-05-22T17:06:20.862Z,4.2
2023-05-22T17:08:22.963Z,4.1
2023-05-22T17:16:29.666Z,4.3
2023-05-22T17:18:31.313Z,7.9
2023-05-22T17:24:39.475Z,12.8
2023-05-22T17:28:42.874Z,7.2
2023-05-22T17:30:44.498Z,4.1
2023-05-22T17:32:46.219Z,18.1
2023-05-22T17:34:47.866Z,6.4
2023-05-22T17:36:52.706Z,8.1
2023-05-22T17:38:54.368Z,17.1
2023-05-22T17:42:57.728Z,6.8
2023-05-22T17:44:59.399Z,9.3
2023-05-22T17:47:01.102Z,7.8
2023-05-22T17:49:02.782Z,15.1
2023-05-22T17:51:09.177Z,13.1
2023-05-22T17:53:10.831Z,14.6
2023-05-22T17:55:12.485Z,11.2
2023-05-22T17:56:14.886Z,9.1
2023-05-22T17:58:16.585Z,8.3
2023-05-22T18:00:18.256Z,5
2023-05-22T18:02:19.989Z,7.8
2023-05-22T18:04:24.824Z,9.4
2023-05-22T18:10:29.902Z,12.4
2023-05-22T18:12:32.412Z,10
2023-05-22T18:14:33.290Z,12.4
2023-05-22T18:16:34.987Z,14.2
2023-05-22T18:20:41.633Z,27.3
2023-05-22T18:28:48.310Z,4.3
2023-05-22T18:30:49.974Z,6.3
2023-05-22T18:32:54.834Z,9.2
2023-05-22T18:34:56.545Z,34.7
2023-05-22T18:36:58.254Z,4.7
2023-05-22T18:41:01.634Z,7.2
2023-05-22T18:43:03.325Z,9.6
2023-05-22T18:45:05.026Z,14.4
2023-05-22T18:47:10.035Z,6.1
2023-05-22T18:49:11.599Z,5.8
2023-05-22T18:51:13.287Z,7.2
2023-05-22T18:52:15.810Z,8.8
2023-05-22T18:54:17.507Z,7
2023-05-22T18:56:19.233Z,6.8
2023-05-22T18:58:20.918Z,4.6
2023-05-22T19:00:25.780Z,18
2023-05-22T19:08:32.723Z,7.9
2023-05-22T19:10:34.577Z,4.8
2023-05-22T19:12:36.206Z,4.8
2023-05-22T19:14:41.111Z,14.5
2023-05-22T19:16:43.852Z,4.4
2023-05-22T19:18:44.627Z,8
2023-05-22T19:20:46.441Z,9.1
2023-05-22T19:22:48.165Z,6.9
2023-05-22T19:24:49.856Z,6.1
2023-05-22T19:26:51.584Z,6.4
2023-05-22T19:28:56.447Z,14.8
2023-05-22T19:32:59.991Z,7.8
2023-05-22T19:43:12.302Z,3.2
2023-05-22T19:47:15.919Z,7.4
2023-05-22T19:51:46.282Z,4.2
2023-05-22T19:53:48.102Z,4.1
2023-05-22T19:55:53.074Z,4.1
2023-05-22T19:57:54.885Z,5.6
2023-05-22T20:10:08.927Z,5.2
2023-05-22T20:14:12.554Z,11
2023-05-22T20:16:14.386Z,5.8
2023-05-22T20:20:17.996Z,5.1
2023-05-22T20:24:25.139Z,12.5
2023-05-22T20:26:26.943Z,7.1
2023-05-22T20:30:30.588Z,7.5
2023-05-22T20:32:32.456Z,2.7
2023-05-22T20:34:34.195Z,8.4
2023-05-22T20:42:44.722Z,5.7
2023-05-22T20:43:47.237Z,6.7
2023-05-22T20:47:50.792Z,5.1
2023-05-22T20:53:59.414Z,5.6
2023-05-22T21:00:04.855Z,8.7
2023-05-22T21:02:06.681Z,5.8
2023-05-22T21:04:08.533Z,6.5
2023-05-22T21:06:13.541Z,10.7
2023-05-22T21:08:15.365Z,2.5
2023-05-22T21:10:17.182Z,4.2
2023-05-22T21:12:18.979Z,6.1
2023-05-22T21:14:20.816Z,6.5
2023-05-22T21:16:22.708Z,6.8
2023-05-22T21:18:24.415Z,6.3
2023-05-22T21:20:29.525Z,11.8
2023-05-22T21:22:31.312Z,3.4
2023-05-22T21:24:33.147Z,3.2
2023-05-22T21:26:34.951Z,6.9
2023-05-22T21:28:36.783Z,8.6
2023-05-22T21:30:38.809Z,5.8
2023-05-22T21:32:40.422Z,4.1
2023-05-22T21:34:45.459Z,1.6
2023-05-22T21:38:49.079Z,3.5
2023-05-22T21:39:51.594Z,2.5
2023-05-22T21:45:57.053Z,1.7
2023-05-22T21:50:03.936Z,2.9
2023-05-22T21:54:07.588Z,2.8
2023-05-22T21:56:09.332Z,5.6
2023-05-22T21:58:11.163Z,5.2
2023-05-22T22:08:23.424Z,2.9
2023-05-22T22:12:27.078Z,3.8
2023-05-22T22:22:39.356Z,8
2023-05-22T22:35:56.005Z,3.6
2023-05-22T22:37:57.798Z,4.9
2023-05-22T22:39:59.653Z,6.6
2023-05-22T22:44:06.508Z,5
2023-05-22T22:48:10.139Z,2.5
2023-05-22T22:50:11.940Z,4.6
2023-05-22T22:52:13.732Z,8
2023-05-22T22:54:15.562Z,3.4
2023-05-22T23:00:24.218Z,5.1
2023-05-22T23:02:26.054Z,4.9
2023-05-22T23:10:33.252Z,5.6
2023-05-22T23:12:38.307Z,10.5
2023-05-22T23:16:41.949Z,4.8
2023-05-22T23:18:43.729Z,14.8
2023-05-22T23:24:49.195Z,3.3
2023-05-22T23:28:56.051Z,8.2
2023-05-22T23:30:57.835Z,9.7
2023-05-22T23:33:26.472Z,8.3
2023-05-22T23:35:28.287Z,12.3
2023-05-22T23:37:30.188Z,5
2023-05-22T23:39:35.135Z,6
2023-05-22T23:41:38.512Z,4
2023-05-22T23:43:40.261Z,5.9
2023-05-22T23:45:42.298Z,12.8
2023-05-22T23:47:43.890Z,6
2023-05-22T23:49:45.693Z,5.1
2023-05-22T23:51:47.496Z,6.3
2023-05-22T23:55:54.344Z,8.3
2023-05-22T23:57:56.157Z,6.1
2023-05-22T23:59:57.983Z,16.4
